Time,TemperatureF,DewpointF,PressureIn,WindDirection,WindDirectionDegrees,WindSpeedMPH,WindSpeedGustMPH,Humidity,HourlyPrecipIn,Conditions,Clouds,dailyrainin,SolarRadiationWatts/m^2,SoftwareType,DateUTC
2014-02-04 00:00:00,10.0,3.0,-100.00,West,270,7.0,-999.0,72,-99.99,,,-99.99,0.000000,,2014-02-04 06:00:00,
2014-02-04 00:43:00,10.0,3.0,-100.00,West,270,7.0,-999.0,72,-99.99,,,-99.99,0.000000,,2014-02-04 06:43:00,
2014-02-04 00:52:00,10.0,3.0,-100.00,West,270,7.0,-999.0,72,-99.99,,,-99.99,0.000000,,2014-02-04 06:52:00,
2014-02-04 03:00:00,6.0,1.0,-100.00,West,270,5.0,-999.0,79,-99.99,,,-99.99,0.000000,,2014-02-04 09:00:00,
2014-02-04 03:43:00,6.0,1.0,-100.00,West,270,5.0,-999.0,79,-99.99,,,-99.99,0.000000,,2014-02-04 09:43:00,
2014-02-04 03:54:00,6.0,1.0,-100.00,West,270,5.0,-999.0,79,-99.99,,,-99.99,0.000000,,2014-02-04 09:54:00,
2014-02-04 06:00:00,-1.0,-3.0,-100.00,WNW,292,3.0,-999.0,88,-99.99,,,-99.99,0.000000,,2014-02-04 12:00:00,
2014-02-04 06:42:00,-1.0,-3.0,-100.00,WNW,292,3.0,-999.0,88,-99.99,,,-99.99,0.000000,,2014-02-04 12:42:00,
2014-02-04 06:52:00,-1.0,-3.0,-100.00,WNW,292,3.0,-999.0,88,-99.99,,,-99.99,0.000000,,2014-02-04 12:52:00,
2014-02-04 09:00:00,8.0,4.0,-100.00,NNW,337,7.0,-999.0,82,-99.99,,,-99.99,203.000000,,2014-02-04 15:00:00,
2014-02-04 09:44:00,8.0,4.0,-100.00,NNW,337,7.0,-999.0,82,-99.99,,,-99.99,203.000000,,2014-02-04 15:44:00,
2014-02-04 09:53:00,8.0,4.0,-100.00,NNW,337,7.0,-999.0,82,-99.99,,,-99.99,203.000000,,2014-02-04 15:53:00,
2014-02-04 12:00:00,18.0,6.0,-100.00,North,0,5.0,-999.0,59,-99.99,,,-99.99,476.760010,,2014-02-04 18:00:00,
2014-02-04 12:43:00,18.0,6.0,-100.00,North,0,5.0,-999.0,59,-99.99,,,-99.99,476.760010,,2014-02-04 18:43:00,
2014-02-04 12:52:00,18.0,6.0,-100.00,North,0,5.0,-999.0,59,-99.99,,,-99.99,476.760010,,2014-02-04 18:52:00,
2014-02-04 15:00:00,18.0,7.0,-100.00,NNW,337,2.0,-999.0,62,-99.99,,,-99.99,185.600006,,2014-02-04 21:00:00,
2014-02-04 15:43:00,18.0,7.0,-100.00,NNW,337,2.0,-999.0,62,-99.99,,,-99.99,185.600006,,2014-02-04 21:43:00,
2014-02-04 15:54:00,18.0,7.0,-100.00,NNW,337,2.0,-999.0,62,-99.99,,,-99.99,185.600006,,2014-02-04 21:54:00,
2014-02-04 18:00:00,13.0,6.0,-100.00,North,0,2.0,-999.0,74,-99.99,,,-99.99,0.000000,,2014-02-05 00:00:00,
2014-02-04 18:42:00,13.0,6.0,-100.00,North,0,2.0,-999.0,74,-99.99,,,-99.99,0.000000,,2014-02-05 00:42:00,
2014-02-04 18:52:00,13.0,6.0,-100.00,North,0,2.0,-999.0,74,-99.99,,,-99.99,0.000000,,2014-02-05 00:52:00,
2014-02-04 21:00:00,14.0,9.0,-100.00,North,0,6.0,-999.0,78,-99.99,,,-99.99,0.000000,,2014-02-05 03:00:00,
2014-02-04 21:44:00,14.0,9.0,-100.00,North,0,6.0,-999.0,78,-99.99,,,-99.99,0.000000,,2014-02-05 03:44:00,
2014-02-04 21:54:00,14.0,9.0,-100.00,North,0,6.0,-999.0,78,-99.99,,,-99.99,0.000000,,2014-02-05 03:54:00,